sensor_id;sensor_type;location;lat;lon;timestamp;pressure;altitude;pressure_sealevel;temperature;humidity
70909;BME280;58554;52.006;5.926;2023-09-19T00:01:30;99842.03;;;19.00;60.95
70909;BME280;58554;52.006;5.926;2023-09-19T00:03:59;99847.38;;;19.00;60.83
70909;BME280;58554;52.006;5.926;2023-09-19T00:06:28;99853.72;;;18.99;60.63
70909;BME280;58554;52.006;5.926;2023-09-19T00:08:55;99865.47;;;18.98;60.85
70909;BME280;58554;52.006;5.926;2023-09-19T00:11:21;99871.66;;;18.99;60.67
70909;BME280;58554;52.006;5.926;2023-09-19T00:13:48;99870.81;;;18.98;60.72
70909;BME280;58554;52.006;5.926;2023-09-19T00:16:15;99880.53;;;18.99;60.60
70909;BME280;58554;52.006;5.926;2023-09-19T00:18:41;99874.69;;;18.96;60.68
70909;BME280;58554;52.006;5.926;2023-09-19T00:21:10;99880.88;;;18.96;60.79
70909;BME280;58554;52.006;5.926;2023-09-19T00:23:38;99879.03;;;18.97;60.85
70909;BME280;58554;52.006;5.926;2023-09-19T00:26:06;99886.38;;;18.95;60.94
70909;BME280;58554;52.006;5.926;2023-09-19T00:28:33;99888.38;;;18.93;60.94
70909;BME280;58554;52.006;5.926;2023-09-19T00:30:59;99894.56;;;18.93;61.12
70909;BME280;58554;52.006;5.926;2023-09-19T00:33:26;99897.25;;;18.93;60.93
70909;BME280;58554;52.006;5.926;2023-09-19T00:35:54;99893.75;;;18.93;61.06
70909;BME280;58554;52.006;5.926;2023-09-19T00:38:24;99896.25;;;18.94;61.18
70909;BME280;58554;52.006;5.926;2023-09-19T00:40:51;99893.75;;;18.93;61.28
70909;BME280;58554;52.006;5.926;2023-09-19T00:43:18;99900.94;;;18.92;61.28
70909;BME280;58554;52.006;5.926;2023-09-19T00:45:49;99901.63;;;18.94;61.44
70909;BME280;58554;52.006;5.926;2023-09-19T00:48:19;99902.13;;;18.90;61.80
70909;BME280;58554;52.006;5.926;2023-09-19T00:50:48;99902.94;;;18.90;61.86
70909;BME280;58554;52.006;5.926;2023-09-19T00:53:18;99911.16;;;18.89;61.77
70909;BME280;58554;52.006;5.926;2023-09-19T00:55:50;99915.66;;;18.88;62.09
70909;BME280;58554;52.006;5.926;2023-09-19T00:58:18;99916.66;;;18.87;62.09
70909;BME280;58554;52.006;5.926;2023-09-19T01:00:45;99917.00;;;18.84;62.09
70909;BME280;58554;52.006;5.926;2023-09-19T01:03:13;99918.16;;;18.81;62.31
70909;BME280;58554;52.006;5.926;2023-09-19T01:05:40;99919.00;;;18.82;62.36
70909;BME280;58554;52.006;5.926;2023-09-19T01:08:07;99921.97;;;18.79;62.43
70909;BME280;58554;52.006;5.926;2023-09-19T01:10:38;99917.66;;;18.78;62.34
70909;BME280;58554;52.006;5.926;2023-09-19T01:13:23;99914.81;;;18.79;62.54
70909;BME280;58554;52.006;5.926;2023-09-19T01:16:03;99924.19;;;18.84;62.37
70909;BME280;58554;52.006;5.926;2023-09-19T01:18:47;99922.34;;;18.84;62.45
70909;BME280;58554;52.006;5.926;2023-09-19T01:21:27;99924.50;;;18.80;62.33
70909;BME280;58554;52.006;5.926;2023-09-19T01:24:11;99925.84;;;18.76;62.67
70909;BME280;58554;52.006;5.926;2023-09-19T01:27:19;99925.63;;;18.70;62.69
70909;BME280;58554;52.006;5.926;2023-09-19T01:30:09;99924.09;;;18.67;62.61
70909;BME280;58554;52.006;5.926;2023-09-19T01:32:37;99923.72;;;18.62;62.94
70909;BME280;58554;52.006;5.926;2023-09-19T01:35:06;99925.44;;;18.63;62.86
70909;BME280;58554;52.006;5.926;2023-09-19T01:37:32;99930.63;;;18.65;62.80
70909;BME280;58554;52.006;5.926;2023-09-19T01:40:02;99930.78;;;18.63;62.90
70909;BME280;58554;52.006;5.926;2023-09-19T01:42:37;99933.75;;;18.60;62.85
70909;BME280;58554;52.006;5.926;2023-09-19T01:45:20;99939.97;;;18.60;62.87
70909;BME280;58554;52.006;5.926;2023-09-19T01:48:04;99935.59;;;18.59;62.61
70909;BME280;58554;52.006;5.926;2023-09-19T01:50:49;99949.16;;;18.58;62.79
70909;BME280;58554;52.006;5.926;2023-09-19T01:53:26;99939.59;;;18.55;62.64
70909;BME280;58554;52.006;5.926;2023-09-19T01:55:57;99940.63;;;18.54;62.92
70909;BME280;58554;52.006;5.926;2023-09-19T01:58:30;99945.28;;;18.52;62.66
70909;BME280;58554;52.006;5.926;2023-09-19T02:01:04;99942.41;;;18.46;62.71
70909;BME280;58554;52.006;5.926;2023-09-19T02:03:35;99936.16;;;18.37;62.66
70909;BME280;58554;52.006;5.926;2023-09-19T02:06:04;99942.16;;;18.31;62.47
70909;BME280;58554;52.006;5.926;2023-09-19T02:08:31;99946.31;;;18.25;62.39
70909;BME280;58554;52.006;5.926;2023-09-19T02:10:57;99943.59;;;18.17;62.40
70909;BME280;58554;52.006;5.926;2023-09-19T02:13:24;99955.41;;;18.14;62.54
70909;BME280;58554;52.006;5.926;2023-09-19T02:15:52;99952.75;;;18.14;62.35
70909;BME280;58554;52.006;5.926;2023-09-19T02:18:21;99952.25;;;18.11;62.26
70909;BME280;58554;52.006;5.926;2023-09-19T02:20:47;99951.84;;;18.06;61.94
70909;BME280;58554;52.006;5.926;2023-09-19T02:23:14;99954.03;;;18.02;62.00
70909;BME280;58554;52.006;5.926;2023-09-19T02:25:41;99954.47;;;17.97;62.19
70909;BME280;58554;52.006;5.926;2023-09-19T02:28:08;99955.16;;;17.99;62.25
70909;BME280;58554;52.006;5.926;2023-09-19T02:30:35;99950.97;;;17.97;62.10
70909;BME280;58554;52.006;5.926;2023-09-19T02:33:01;99945.63;;;17.97;62.06
70909;BME280;58554;52.006;5.926;2023-09-19T02:35:31;99946.28;;;17.99;62.21
70909;BME280;58554;52.006;5.926;2023-09-19T02:37:57;99952.81;;;17.96;61.69
70909;BME280;58554;52.006;5.926;2023-09-19T02:40:24;99956.78;;;17.92;61.90
70909;BME280;58554;52.006;5.926;2023-09-19T02:42:53;99959.94;;;17.88;61.69
70909;BME280;58554;52.006;5.926;2023-09-19T02:45:21;99962.34;;;17.81;61.72
70909;BME280;58554;52.006;5.926;2023-09-19T02:47:50;99953.78;;;17.77;61.54
70909;BME280;58554;52.006;5.926;2023-09-19T02:50:17;99958.91;;;17.71;61.50
70909;BME280;58554;52.006;5.926;2023-09-19T02:52:46;99958.25;;;17.69;61.71
70909;BME280;58554;52.006;5.926;2023-09-19T02:55:14;99962.72;;;17.68;61.46
70909;BME280;58554;52.006;5.926;2023-09-19T02:57:45;99962.03;;;17.66;61.22
70909;BME280;58554;52.006;5.926;2023-09-19T03:00:13;99957.00;;;17.63;61.13
70909;BME280;58554;52.006;5.926;2023-09-19T03:02:40;99969.69;;;17.61;61.22
70909;BME280;58554;52.006;5.926;2023-09-19T03:05:07;99974.34;;;17.59;61.28
70909;BME280;58554;52.006;5.926;2023-09-19T03:07:34;99965.66;;;17.57;61.01
70909;BME280;58554;52.006;5.926;2023-09-19T03:10:04;99974.34;;;17.59;60.98
70909;BME280;58554;52.006;5.926;2023-09-19T03:12:32;99969.31;;;17.56;60.98
70909;BME280;58554;52.006;5.926;2023-09-19T03:14:58;99970.44;;;17.53;60.92
70909;BME280;58554;52.006;5.926;2023-09-19T03:17:25;99964.28;;;17.53;60.92
70909;BME280;58554;52.006;5.926;2023-09-19T03:19:51;99964.13;;;17.54;60.94
70909;BME280;58554;52.006;5.926;2023-09-19T03:22:18;99965.66;;;17.57;60.67
70909;BME280;58554;52.006;5.926;2023-09-19T03:24:45;99967.78;;;17.53;60.68
70909;BME280;58554;52.006;5.926;2023-09-19T03:27:14;99963.59;;;17.51;60.53
70909;BME280;58554;52.006;5.926;2023-09-19T03:29:40;99972.59;;;17.50;60.45
70909;BME280;58554;52.006;5.926;2023-09-19T03:32:07;99966.53;;;17.48;60.36
70909;BME280;58554;52.006;5.926;2023-09-19T03:34:35;99968.84;;;17.43;60.42
70909;BME280;58554;52.006;5.926;2023-09-19T03:37:03;99958.63;;;17.38;60.58
70909;BME280;58554;52.006;5.926;2023-09-19T03:39:29;99951.75;;;17.35;60.36
70909;BME280;58554;52.006;5.926;2023-09-19T03:41:56;99955.72;;;17.31;60.25
70909;BME280;58554;52.006;5.926;2023-09-19T03:44:25;99965.19;;;17.26;60.04
70909;BME280;58554;52.006;5.926;2023-09-19T03:46:52;99967.63;;;17.19;60.19
70909;BME280;58554;52.006;5.926;2023-09-19T03:49:18;99968.91;;;17.15;60.13
70909;BME280;58554;52.006;5.926;2023-09-19T03:51:45;99971.84;;;17.12;60.39
70909;BME280;58554;52.006;5.926;2023-09-19T03:54:11;99962.31;;;17.09;60.11
70909;BME280;58554;52.006;5.926;2023-09-19T03:56:38;99961.50;;;17.09;60.17
70909;BME280;58554;52.006;5.926;2023-09-19T03:59:04;99960.09;;;17.05;59.88
70909;BME280;58554;52.006;5.926;2023-09-19T04:01:34;99959.41;;;17.03;59.75
70909;BME280;58554;52.006;5.926;2023-09-19T04:04:00;99955.22;;;17.00;59.87
70909;BME280;58554;52.006;5.926;2023-09-19T04:06:27;99960.69;;;16.98;59.80
70909;BME280;58554;52.006;5.926;2023-09-19T04:08:53;99962.00;;;16.94;59.76
70909;BME280;58554;52.006;5.926;2023-09-19T04:11:20;99976.63;;;16.90;59.98
70909;BME280;58554;52.006;5.926;2023-09-19T04:13:47;99966.22;;;16.87;59.92
70909;BME280;58554;52.006;5.926;2023-09-19T04:16:13;99969.22;;;16.84;59.72
70909;BME280;58554;52.006;5.926;2023-09-19T04:18:42;99983.38;;;16.85;60.12
70909;BME280;58554;52.006;5.926;2023-09-19T04:21:09;99983.94;;;16.88;60.03
70909;BME280;58554;52.006;5.926;2023-09-19T04:23:35;99981.13;;;16.90;59.73
70909;BME280;58554;52.006;5.926;2023-09-19T04:26:02;99997.28;;;16.88;59.27
70909;BME280;58554;52.006;5.926;2023-09-19T04:28:29;100010.22;;;16.83;59.45
70909;BME280;58554;52.006;5.926;2023-09-19T04:30:55;100014.84;;;16.81;59.61
70909;BME280;58554;52.006;5.926;2023-09-19T04:33:22;100019.22;;;16.82;59.45
70909;BME280;58554;52.006;5.926;2023-09-19T04:35:52;100016.53;;;16.82;59.48
70909;BME280;58554;52.006;5.926;2023-09-19T04:38:18;100018.38;;;16.82;59.49
70909;BME280;58554;52.006;5.926;2023-09-19T04:40:45;100025.53;;;16.81;59.29
70909;BME280;58554;52.006;5.926;2023-09-19T04:43:12;100037.22;;;16.80;59.42
70909;BME280;58554;52.006;5.926;2023-09-19T04:45:39;100027.94;;;16.74;59.23
70909;BME280;58554;52.006;5.926;2023-09-19T04:48:06;100026.41;;;16.72;59.51
70909;BME280;58554;52.006;5.926;2023-09-19T04:50:33;100037.22;;;16.70;59.33
70909;BME280;58554;52.006;5.926;2023-09-19T04:53:02;100038.38;;;16.68;59.24
70909;BME280;58554;52.006;5.926;2023-09-19T04:55:29;100036.00;;;16.65;59.23
70909;BME280;58554;52.006;5.926;2023-09-19T04:57:56;100036.28;;;16.62;59.28
70909;BME280;58554;52.006;5.926;2023-09-19T05:00:23;100041.75;;;16.60;59.40
70909;BME280;58554;52.006;5.926;2023-09-19T05:02:50;100047.25;;;16.58;59.50
70909;BME280;58554;52.006;5.926;2023-09-19T05:05:18;100049.94;;;16.58;59.30
70909;BME280;58554;52.006;5.926;2023-09-19T05:07:45;100051.91;;;16.56;59.45
70909;BME280;58554;52.006;5.926;2023-09-19T05:10:15;100037.69;;;16.56;59.39
70909;BME280;58554;52.006;5.926;2023-09-19T05:12:42;100032.34;;;16.56;59.43
70909;BME280;58554;52.006;5.926;2023-09-19T05:15:08;100037.56;;;16.57;59.46
70909;BME280;58554;52.006;5.926;2023-09-19T05:17:35;100022.69;;;16.55;59.23
70909;BME280;58554;52.006;5.926;2023-09-19T05:20:03;100034.06;;;16.47;59.46
70909;BME280;58554;52.006;5.926;2023-09-19T05:22:30;100046.16;;;16.42;59.50
70909;BME280;58554;52.006;5.926;2023-09-19T05:24:57;100041.56;;;16.34;59.47
70909;BME280;58554;52.006;5.926;2023-09-19T05:27:26;100045.91;;;16.25;59.79
70909;BME280;58554;52.006;5.926;2023-09-19T05:29:53;100044.91;;;16.16;59.78
70909;BME280;58554;52.006;5.926;2023-09-19T05:32:19;100036.78;;;16.08;59.83
70909;BME280;58554;52.006;5.926;2023-09-19T05:34:46;100045.66;;;15.99;59.84
70909;BME280;58554;52.006;5.926;2023-09-19T05:37:13;100043.13;;;15.88;60.05
70909;BME280;58554;52.006;5.926;2023-09-19T05:39:40;100037.19;;;15.74;60.18
70909;BME280;58554;52.006;5.926;2023-09-19T05:42:08;100051.50;;;15.64;60.50
70909;BME280;58554;52.006;5.926;2023-09-19T05:44:37;100049.50;;;15.56;60.74
70909;BME280;58554;52.006;5.926;2023-09-19T05:47:04;100047.69;;;15.47;60.70
70909;BME280;58554;52.006;5.926;2023-09-19T05:49:31;100051.31;;;15.36;60.95
70909;BME280;58554;52.006;5.926;2023-09-19T05:51:57;100055.47;;;15.29;61.40
70909;BME280;58554;52.006;5.926;2023-09-19T05:54:27;100057.00;;;15.22;61.32
70909;BME280;58554;52.006;5.926;2023-09-19T05:56:53;100048.00;;;15.13;61.98
70909;BME280;58554;52.006;5.926;2023-09-19T05:59:20;100047.97;;;15.03;61.92
70909;BME280;58554;52.006;5.926;2023-09-19T06:01:49;100049.34;;;14.97;62.06
70909;BME280;58554;52.006;5.926;2023-09-19T06:04:16;100049.63;;;14.94;62.14
70909;BME280;58554;52.006;5.926;2023-09-19T06:06:42;100060.53;;;14.91;62.25
70909;BME280;58554;52.006;5.926;2023-09-19T06:09:09;100053.53;;;14.90;62.66
70909;BME280;58554;52.006;5.926;2023-09-19T06:11:35;100057.31;;;14.88;62.73
70909;BME280;58554;52.006;5.926;2023-09-19T06:14:02;100064.84;;;14.83;62.98
70909;BME280;58554;52.006;5.926;2023-09-19T06:16:30;100068.72;;;14.78;63.10
70909;BME280;58554;52.006;5.926;2023-09-19T06:18:59;100069.84;;;14.76;63.06
70909;BME280;58554;52.006;5.926;2023-09-19T06:21:27;100061.97;;;14.74;63.33
70909;BME280;58554;52.006;5.926;2023-09-19T06:23:53;100064.91;;;14.71;63.58
70909;BME280;58554;52.006;5.926;2023-09-19T06:26:20;100070.34;;;14.70;63.70
70909;BME280;58554;52.006;5.926;2023-09-19T06:28:46;100068.66;;;14.69;63.75
70909;BME280;58554;52.006;5.926;2023-09-19T06:31:13;100075.66;;;14.70;64.10
70909;BME280;58554;52.006;5.926;2023-09-19T06:33:39;100079.16;;;14.70;64.15
70909;BME280;58554;52.006;5.926;2023-09-19T06:36:09;100086.94;;;14.73;64.26
70909;BME280;58554;52.006;5.926;2023-09-19T06:38:35;100090.44;;;14.74;64.35
70909;BME280;58554;52.006;5.926;2023-09-19T06:41:02;100086.94;;;14.73;64.70
70909;BME280;58554;52.006;5.926;2023-09-19T06:43:29;100089.47;;;14.75;64.64
70909;BME280;58554;52.006;5.926;2023-09-19T06:45:56;100092.97;;;14.75;64.73
70909;BME280;58554;52.006;5.926;2023-09-19T06:48:23;100088.34;;;14.77;64.92
70909;BME280;58554;52.006;5.926;2023-09-19T06:50:49;100089.06;;;14.80;64.88
70909;BME280;58554;52.006;5.926;2023-09-19T06:53:19;100077.31;;;14.82;65.17
70909;BME280;58554;52.006;5.926;2023-09-19T06:55:45;100078.84;;;14.85;65.17
70909;BME280;58554;52.006;5.926;2023-09-19T06:58:12;100083.06;;;14.87;64.98
70909;BME280;58554;52.006;5.926;2023-09-19T07:00:39;100076.91;;;14.87;65.40
70909;BME280;58554;52.006;5.926;2023-09-19T07:03:06;100074.81;;;14.90;65.41
70909;BME280;58554;52.006;5.926;2023-09-19T07:05:35;100080.84;;;14.92;65.54
70909;BME280;58554;52.006;5.926;2023-09-19T07:08:01;100077.19;;;14.93;65.44
70909;BME280;58554;52.006;5.926;2023-09-19T07:10:31;100076.94;;;14.96;65.71
70909;BME280;58554;52.006;5.926;2023-09-19T07:12:58;100076.66;;;14.99;65.65
70909;BME280;58554;52.006;5.926;2023-09-19T07:15:26;100082.72;;;15.02;65.84
70909;BME280;58554;52.006;5.926;2023-09-19T07:17:53;100090.69;;;15.02;65.80
70909;BME280;58554;52.006;5.926;2023-09-19T07:20:20;100082.47;;;15.05;65.83
70909;BME280;58554;52.006;5.926;2023-09-19T07:22:48;100084.00;;;15.07;66.16
70909;BME280;58554;52.006;5.926;2023-09-19T07:25:15;100092.69;;;15.09;66.07
70909;BME280;58554;52.006;5.926;2023-09-19T07:27:44;100087.25;;;15.11;66.06
70909;BME280;58554;52.006;5.926;2023-09-19T07:30:12;100085.13;;;15.14;66.00
70909;BME280;58554;52.006;5.926;2023-09-19T07:32:39;100086.56;;;15.18;66.02
70909;BME280;58554;52.006;5.926;2023-09-19T07:35:06;100090.63;;;15.23;66.09
70909;BME280;58554;52.006;5.926;2023-09-19T07:37:33;100090.09;;;15.29;66.25
70909;BME280;58554;52.006;5.926;2023-09-19T07:40:01;100095.31;;;15.30;66.09
70909;BME280;58554;52.006;5.926;2023-09-19T07:42:27;100100.50;;;15.32;66.22
70909;BME280;58554;52.006;5.926;2023-09-19T07:44:57;100109.63;;;15.39;66.08
70909;BME280;58554;52.006;5.926;2023-09-19T07:47:23;100107.66;;;15.41;66.29
70909;BME280;58554;52.006;5.926;2023-09-19T07:49:50;100103.75;;;15.45;66.06
70909;BME280;58554;52.006;5.926;2023-09-19T07:52:16;100090.88;;;15.50;66.07
70909;BME280;58554;52.006;5.926;2023-09-19T07:54:43;100107.41;;;15.54;66.24
70909;BME280;58554;52.006;5.926;2023-09-19T07:57:10;100103.66;;;15.56;66.29
70909;BME280;58554;52.006;5.926;2023-09-19T07:59:38;100105.22;;;15.59;66.25
70909;BME280;58554;52.006;5.926;2023-09-19T08:02:07;100109.53;;;15.60;66.34
70909;BME280;58554;52.006;5.926;2023-09-19T08:04:33;100125.28;;;15.63;66.44
70909;BME280;58554;52.006;5.926;2023-09-19T08:07:00;100115.31;;;15.65;66.33
70909;BME280;58554;52.006;5.926;2023-09-19T08:09:27;100107.19;;;15.67;66.43
70909;BME280;58554;52.006;5.926;2023-09-19T08:11:53;100108.88;;;15.68;66.22
70909;BME280;58554;52.006;5.926;2023-09-19T08:14:20;100109.56;;;15.70;66.34
70909;BME280;58554;52.006;5.926;2023-09-19T08:16:46;100111.13;;;15.72;66.22
70909;BME280;58554;52.006;5.926;2023-09-19T08:19:15;100109.84;;;15.76;66.29
70909;BME280;58554;52.006;5.926;2023-09-19T08:21:42;100107.06;;;15.78;66.12
70909;BME280;58554;52.006;5.926;2023-09-19T08:24:08;100108.50;;;15.82;66.44
70909;BME280;58554;52.006;5.926;2023-09-19T08:26:35;100113.41;;;15.87;66.20
70909;BME280;58554;52.006;5.926;2023-09-19T08:29:02;100105.16;;;15.90;66.32
70909;BME280;58554;52.006;5.926;2023-09-19T08:31:31;100117.38;;;15.92;66.27
70909;BME280;58554;52.006;5.926;2023-09-19T08:33:58;100115.81;;;15.99;66.43
70909;BME280;58554;52.006;5.926;2023-09-19T08:36:27;100120.47;;;16.07;66.40
70909;BME280;58554;52.006;5.926;2023-09-19T08:38:54;100103.34;;;16.10;66.45
70909;BME280;58554;52.006;5.926;2023-09-19T08:41:20;100115.28;;;16.15;66.58
70909;BME280;58554;52.006;5.926;2023-09-19T08:43:47;100106.97;;;16.18;66.42
70909;BME280;58554;52.006;5.926;2023-09-19T08:46:15;100110.09;;;16.24;66.40
70909;BME280;58554;52.006;5.926;2023-09-19T08:48:46;100106.84;;;16.30;66.22
70909;BME280;58554;52.006;5.926;2023-09-19T08:51:30;100102.47;;;16.38;66.33
70909;BME280;58554;52.006;5.926;2023-09-19T08:54:07;100107.13;;;16.46;66.35
70909;BME280;58554;52.006;5.926;2023-09-19T08:56:34;100103.88;;;16.52;66.18
70909;BME280;58554;52.006;5.926;2023-09-19T08:59:03;100105.81;;;16.60;66.02
70909;BME280;58554;52.006;5.926;2023-09-19T09:01:31;100117.06;;;16.64;65.97
70909;BME280;58554;52.006;5.926;2023-09-19T09:03:59;100102.31;;;16.69;65.82
70909;BME280;58554;52.006;5.926;2023-09-19T09:06:30;100108.19;;;16.73;65.58
70909;BME280;58554;52.006;5.926;2023-09-19T09:08:57;100112.25;;;16.77;65.74
70909;BME280;58554;52.006;5.926;2023-09-19T09:11:25;100099.91;;;16.76;65.48
70909;BME280;58554;52.006;5.926;2023-09-19T09:13:52;100102.44;;;16.77;65.35
70909;BME280;58554;52.006;5.926;2023-09-19T09:16:18;100102.97;;;16.81;65.66
70909;BME280;58554;52.006;5.926;2023-09-19T09:18:45;100093.69;;;16.85;65.57
70909;BME280;58554;52.006;5.926;2023-09-19T09:21:12;100097.63;;;16.91;65.50
70909;BME280;58554;52.006;5.926;2023-09-19T09:23:41;100097.19;;;16.95;65.28
70909;BME280;58554;52.006;5.926;2023-09-19T09:26:08;100092.28;;;17.00;65.41
70909;BME280;58554;52.006;5.926;2023-09-19T09:28:35;100094.63;;;17.04;65.45
70909;BME280;58554;52.006;5.926;2023-09-19T09:31:22;100100.91;;;17.12;65.27
70909;BME280;58554;52.006;5.926;2023-09-19T09:33:53;100094.16;;;17.18;64.96
70909;BME280;58554;52.006;5.926;2023-09-19T09:36:33;100087.38;;;17.24;64.61
70909;BME280;58554;52.006;5.926;2023-09-19T09:39:04;100091.59;;;17.26;64.46
70909;BME280;58554;52.006;5.926;2023-09-19T09:41:36;100092.69;;;17.33;64.58
70909;BME280;58554;52.006;5.926;2023-09-19T09:44:13;100080.56;;;17.39;64.21
70909;BME280;58554;52.006;5.926;2023-09-19T09:46:42;100063.38;;;17.41;64.31
70909;BME280;58554;52.006;5.926;2023-09-19T09:49:10;100079.81;;;17.47;63.78
70909;BME280;58554;52.006;5.926;2023-09-19T09:51:37;100083.31;;;17.47;63.68
70909;BME280;58554;52.006;5.926;2023-09-19T09:54:14;100088.38;;;17.50;63.43
70909;BME280;58554;52.006;5.926;2023-09-19T09:56:52;100091.06;;;17.50;63.22
70909;BME280;58554;52.006;5.926;2023-09-19T09:59:21;100094.09;;;17.55;63.59
70909;BME280;58554;52.006;5.926;2023-09-19T10:01:48;100093.81;;;17.58;63.10
70909;BME280;58554;52.006;5.926;2023-09-19T10:04:27;100090.00;;;17.61;62.87
70909;BME280;58554;52.006;5.926;2023-09-19T10:06:54;100084.19;;;17.66;62.90
70909;BME280;58554;52.006;5.926;2023-09-19T10:09:23;100087.41;;;17.69;62.59
70909;BME280;58554;52.006;5.926;2023-09-19T10:12:03;100084.28;;;17.74;62.64
70909;BME280;58554;52.006;5.926;2023-09-19T10:14:36;100078.91;;;17.84;63.03
70909;BME280;58554;52.006;5.926;2023-09-19T10:17:06;100068.50;;;17.98;62.96
70909;BME280;58554;52.006;5.926;2023-09-19T10:19:39;100067.81;;;18.14;62.77
70909;BME280;58554;52.006;5.926;2023-09-19T10:22:14;100066.97;;;18.32;62.91
70909;BME280;58554;52.006;5.926;2023-09-19T10:24:45;100060.88;;;18.48;62.03
70909;BME280;58554;52.006;5.926;2023-09-19T10:27:16;100061.16;;;18.63;61.91
70909;BME280;58554;52.006;5.926;2023-09-19T10:29:44;100064.97;;;18.78;61.54
70909;BME280;58554;52.006;5.926;2023-09-19T10:32:15;100068.22;;;18.90;61.30
70909;BME280;58554;52.006;5.926;2023-09-19T10:34:46;100065.94;;;19.03;60.94
70909;BME280;58554;52.006;5.926;2023-09-19T10:37:16;100083.25;;;19.17;60.75
70909;BME280;58554;52.006;5.926;2023-09-19T10:39:50;100073.94;;;19.29;60.37
70909;BME280;58554;52.006;5.926;2023-09-19T10:42:19;100077.81;;;19.43;60.45
70909;BME280;58554;52.006;5.926;2023-09-19T10:44:47;100073.00;;;19.55;60.18
70909;BME280;58554;52.006;5.926;2023-09-19T10:47:18;100080.75;;;19.66;59.68
70909;BME280;58554;52.006;5.926;2023-09-19T10:49:45;100078.78;;;19.76;59.42
70909;BME280;58554;52.006;5.926;2023-09-19T10:52:14;100075.28;;;19.84;59.17
70909;BME280;58554;52.006;5.926;2023-09-19T10:54:50;100070.41;;;19.88;58.96
70909;BME280;58554;52.006;5.926;2023-09-19T10:57:20;100072.09;;;19.97;58.85
70909;BME280;58554;52.006;5.926;2023-09-19T11:00:02;100071.09;;;20.06;58.74
70909;BME280;58554;52.006;5.926;2023-09-19T11:02:29;100066.06;;;20.19;59.09
70909;BME280;58554;52.006;5.926;2023-09-19T11:05:11;100047.44;;;20.34;58.25
70909;BME280;58554;52.006;5.926;2023-09-19T11:07:57;100050.97;;;20.43;57.81
70909;BME280;58554;52.006;5.926;2023-09-19T11:10:49;100029.84;;;20.48;56.95
70909;BME280;58554;52.006;5.926;2023-09-19T11:13:24;100039.06;;;20.46;57.56
70909;BME280;58554;52.006;5.926;2023-09-19T11:16:17;100024.97;;;20.43;56.86
70909;BME280;58554;52.006;5.926;2023-09-19T11:18:54;100018.88;;;20.41;57.47
70909;BME280;58554;52.006;5.926;2023-09-19T11:21:51;100017.91;;;20.51;57.43
70909;BME280;58554;52.006;5.926;2023-09-19T11:24:31;100003.81;;;20.57;57.42
70909;BME280;58554;52.006;5.926;2023-09-19T11:27:16;100011.16;;;20.63;56.21
70909;BME280;58554;52.006;5.926;2023-09-19T11:29:43;100012.00;;;20.63;57.17
70909;BME280;58554;52.006;5.926;2023-09-19T11:32:10;100011.00;;;20.65;56.96
70909;BME280;58554;52.006;5.926;2023-09-19T11:34:41;100010.16;;;20.64;56.73
70909;BME280;58554;52.006;5.926;2023-09-19T11:40:30;100003.91;;;20.80;56.78
70909;BME280;58554;52.006;5.926;2023-09-19T11:43:32;100009.56;;;20.85;55.80
70909;BME280;58554;52.006;5.926;2023-09-19T11:46:07;99998.63;;;20.95;56.10
70909;BME280;58554;52.006;5.926;2023-09-19T11:48:40;99997.09;;;21.00;55.79
70909;BME280;58554;52.006;5.926;2023-09-19T11:51:18;100000.09;;;21.06;55.69
70909;BME280;58554;52.006;5.926;2023-09-19T11:53:46;100004.28;;;21.08;55.66
70909;BME280;58554;52.006;5.926;2023-09-19T11:56:13;100005.44;;;21.14;55.67
70909;BME280;58554;52.006;5.926;2023-09-19T11:58:44;99996.66;;;21.20;55.47
70909;BME280;58554;52.006;5.926;2023-09-19T12:01:24;100007.41;;;21.28;54.88
70909;BME280;58554;52.006;5.926;2023-09-19T12:03:56;100003.97;;;21.42;55.38
70909;BME280;58554;52.006;5.926;2023-09-19T12:06:25;100006.78;;;21.49;54.70
70909;BME280;58554;52.006;5.926;2023-09-19T12:08:53;100004.75;;;21.51;54.32
70909;BME280;58554;52.006;5.926;2023-09-19T12:11:21;100000.19;;;21.52;54.58
70909;BME280;58554;52.006;5.926;2023-09-19T12:13:51;100000.19;;;21.52;54.22
70909;BME280;58554;52.006;5.926;2023-09-19T12:16:19;99989.81;;;21.49;54.12
70909;BME280;58554;52.006;5.926;2023-09-19T12:18:47;99990.81;;;21.48;54.12
70909;BME280;58554;52.006;5.926;2023-09-19T12:21:22;99978.88;;;21.50;53.56
70909;BME280;58554;52.006;5.926;2023-09-19T12:24:03;99991.84;;;21.47;53.32
70909;BME280;58554;52.006;5.926;2023-09-19T12:26:39;99986.63;;;21.45;52.86
70909;BME280;58554;52.006;5.926;2023-09-19T12:29:14;99985.13;;;21.42;53.28
70909;BME280;58554;52.006;5.926;2023-09-19T12:31:49;99999.53;;;21.50;53.60
70909;BME280;58554;52.006;5.926;2023-09-19T12:34:20;99982.03;;;21.54;53.49
70909;BME280;58554;52.006;5.926;2023-09-19T12:36:48;99987.78;;;21.51;52.87
70909;BME280;58554;52.006;5.926;2023-09-19T12:39:24;99978.69;;;21.52;52.41
70909;BME280;58554;52.006;5.926;2023-09-19T12:41:52;99998.22;;;21.46;52.62
70909;BME280;58554;52.006;5.926;2023-09-19T12:44:22;99989.50;;;21.43;52.86
70909;BME280;58554;52.006;5.926;2023-09-19T12:46:49;99993.22;;;21.42;52.66
70909;BME280;58554;52.006;5.926;2023-09-19T12:49:17;99984.97;;;21.44;52.66
70909;BME280;58554;52.006;5.926;2023-09-19T12:51:45;99994.69;;;21.45;52.83
70909;BME280;58554;52.006;5.926;2023-09-19T12:54:12;99985.47;;;21.39;52.48
70909;BME280;58554;52.006;5.926;2023-09-19T12:56:40;99977.28;;;21.33;52.44
70909;BME280;58554;52.006;5.926;2023-09-19T12:59:07;99987.75;;;21.28;52.31
70909;BME280;58554;52.006;5.926;2023-09-19T13:01:37;99984.56;;;21.24;52.58
70909;BME280;58554;52.006;5.926;2023-09-19T13:04:13;99989.78;;;21.26;52.09
70909;BME280;58554;52.006;5.926;2023-09-19T13:06:41;99991.81;;;21.23;52.10
70909;BME280;58554;52.006;5.926;2023-09-19T13:09:08;99983.22;;;21.20;52.37
70909;BME280;58554;52.006;5.926;2023-09-19T13:11:37;99980.91;;;21.17;52.35